createdAt,value
2018-05-07T00:00:51.265Z,75.10
2018-05-07T00:03:19.549Z,75.30
2018-05-07T00:05:47.834Z,75.20
2018-05-07T00:08:16.138Z,74.90
2018-05-07T00:10:43.674Z,74.90
2018-05-07T00:13:11.225Z,75.00
2018-05-07T00:15:38.752Z,75.10
2018-05-07T00:18:06.260Z,75.30
2018-05-07T00:20:33.832Z,75.00
2018-05-07T00:23:01.388Z,75.00
2018-05-07T00:25:28.931Z,75.10
2018-05-07T00:27:56.441Z,75.20
2018-05-07T00:30:23.981Z,75.30
2018-05-07T00:32:51.519Z,75.80
2018-05-07T00:35:19.050Z,75.90
2018-05-07T00:37:47.345Z,76.50
2018-05-07T00:40:14.865Z,76.40
2018-05-07T00:42:42.374Z,78.00
2018-05-07T00:45:09.942Z,78.30
2018-05-07T00:47:37.454Z,78.10
2018-05-07T00:50:05.748Z,78.40
2018-05-07T00:52:33.268Z,78.30
2018-05-07T00:55:12.585Z,78.30
2018-05-07T00:57:40.092Z,78.80
2018-05-07T01:00:08.382Z,78.70
2018-05-07T01:02:35.927Z,78.60
2018-05-07T01:05:03.475Z,78.90
2018-05-07T01:07:31.786Z,79.20
2018-05-07T01:09:59.297Z,79.10
2018-05-07T01:12:26.822Z,79.70
2018-05-07T01:14:54.366Z,80.70
2018-05-07T01:17:21.891Z,80.40
2018-05-07T01:19:50.197Z,81.30
2018-05-07T01:22:17.734Z,81.20
2018-05-07T01:24:45.239Z,82.10
2018-05-07T01:27:12.797Z,82.70
2018-05-07T01:29:40.326Z,83.20
2018-05-07T01:32:07.864Z,83.70
2018-05-07T01:34:35.398Z,84.20
2018-05-07T01:37:03.707Z,82.80
2018-05-07T01:39:31.995Z,83.20
2018-05-07T01:41:59.519Z,83.30
2018-05-07T01:44:27.054Z,85.50
2018-05-07T01:46:54.573Z,83.50
2018-05-07T01:49:22.086Z,85.50
2018-05-07T01:51:49.609Z,85.50
2018-05-07T01:54:17.123Z,86.30
2018-05-07T01:56:45.412Z,85.30
2018-05-07T01:59:13.701Z,86.60
2018-05-07T02:01:41.235Z,86.60
2018-05-07T02:04:09.520Z,87.60
2018-05-07T02:06:37.823Z,87.70
2018-05-07T02:09:05.326Z,87.60
2018-05-07T02:11:32.883Z,88.30
2018-05-07T02:14:00.393Z,88.80
2018-05-07T02:16:27.934Z,87.60
2018-05-07T02:18:56.230Z,90.60
2018-05-07T02:21:23.752Z,90.60
2018-05-07T02:23:52.049Z,91.00
2018-05-07T02:26:19.566Z,91.00
2018-05-07T02:28:47.094Z,91.20
2018-05-07T02:31:14.612Z,90.90
2018-05-07T02:33:42.922Z,91.30
2018-05-07T02:36:10.431Z,91.30
2018-05-07T02:38:37.977Z,91.20
2018-05-07T02:41:05.524Z,91.40
2018-05-07T02:43:33.045Z,91.90
2018-05-07T02:46:00.580Z,91.30
2018-05-07T02:48:28.856Z,92.00
2018-05-07T02:50:57.167Z,92.40
2018-05-07T02:53:24.691Z,92.10
2018-05-07T02:55:53.003Z,92.70
2018-05-07T02:58:20.520Z,92.70
2018-05-07T03:00:48.065Z,91.50
2018-05-07T03:03:15.584Z,92.10
2018-05-07T03:05:43.095Z,92.30
2018-05-07T03:08:11.399Z,92.80
2018-05-07T03:10:38.924Z,92.60
2018-05-07T03:13:06.462Z,93.10
2018-05-07T03:15:33.981Z,93.50
2018-05-07T03:18:01.513Z,93.60
2018-05-07T03:20:29.782Z,93.20
2018-05-07T03:22:58.102Z,93.10
2018-05-07T03:25:25.622Z,93.00
2018-05-07T03:27:53.903Z,94.30
2018-05-07T03:30:22.206Z,92.90
2018-05-07T03:32:49.720Z,92.90
2018-05-07T03:35:17.265Z,93.70
2018-05-07T03:37:44.781Z,94.60
2018-05-07T03:40:12.310Z,94.20
2018-05-07T03:42:40.601Z,93.50
2018-05-07T03:45:08.888Z,94.30
2018-05-07T03:47:36.419Z,94.30
2018-05-07T03:50:03.947Z,94.70
2018-05-07T03:52:31.459Z,94.30
2018-05-07T03:54:59.765Z,96.00
2018-05-07T03:57:27.314Z,96.00
2018-05-07T03:59:54.820Z,95.90
2018-05-07T04:02:22.353Z,96.30
2018-05-07T04:04:49.847Z,96.50
2018-05-07T04:07:17.396Z,96.90
2018-05-07T04:09:44.880Z,97.30
2018-05-07T04:12:13.176Z,96.90
2018-05-07T04:14:40.713Z,96.90
2018-05-07T04:17:20.774Z,97.50
2018-05-07T04:20:00.773Z,97.10
2018-05-07T04:22:40.253Z,97.10
2018-05-07T04:25:08.520Z,95.70
2018-05-07T04:27:36.028Z,95.70
2018-05-07T04:30:03.561Z,96.90
2018-05-07T04:32:31.081Z,97.80
2018-05-07T04:34:58.614Z,97.20
2018-05-07T04:37:26.128Z,97.70
2018-05-07T04:39:53.640Z,97.20
2018-05-07T04:42:21.185Z,98.20
2018-05-07T04:44:48.687Z,97.50
2018-05-07T04:47:16.199Z,98.10
2018-05-07T04:49:43.719Z,97.50
2018-05-07T04:52:12.015Z,96.40
2018-05-07T04:54:39.559Z,96.40
2018-05-07T04:57:07.868Z,97.20
2018-05-07T04:59:35.428Z,97.10
2018-05-07T05:02:02.970Z,97.80
2018-05-07T05:04:30.498Z,98.70
2018-05-07T05:06:58.774Z,97.70
2018-05-07T05:09:27.102Z,99.50
2018-05-07T05:11:54.619Z,99.20
2018-05-07T05:14:22.896Z,99.70
2018-05-07T05:16:51.176Z,99.60
2018-05-07T05:19:18.801Z,99.60
2018-05-07T05:21:47.023Z,99.00
2018-05-07T05:24:14.561Z,99.00
2018-05-07T05:26:42.852Z,98.60
2018-05-07T05:29:10.445Z,98.60
2018-05-07T05:31:37.977Z,98.90
2018-05-07T05:34:05.499Z,98.30
2018-05-07T05:36:33.025Z,98.40
2018-05-07T05:39:00.545Z,98.20
2018-05-07T05:41:28.837Z,97.40
2018-05-07T05:43:56.357Z,97.40
2018-05-07T05:46:23.877Z,97.40
2018-05-07T05:48:51.399Z,97.30
2018-05-07T05:51:19.696Z,96.30
2018-05-07T05:53:47.231Z,96.20
2018-05-07T05:56:15.541Z,95.50
2018-05-07T05:58:43.050Z,95.50
2018-05-07T06:01:10.571Z,96.20
2018-05-07T06:03:38.200Z,95.30
2018-05-07T06:06:05.647Z,95.70
2018-05-07T06:08:33.935Z,94.80
2018-05-07T06:11:01.454Z,94.80
2018-05-07T06:13:28.981Z,94.40
2018-05-07T06:15:56.489Z,94.80
2018-05-07T06:18:24.761Z,93.60
2018-05-07T06:20:53.049Z,93.70
2018-05-07T06:23:21.329Z,94.50
2018-05-07T06:25:48.869Z,94.50
2018-05-07T06:28:17.169Z,95.10
2018-05-07T06:30:45.473Z,92.80
2018-05-07T06:33:12.990Z,92.80
2018-05-07T06:35:41.306Z,92.80
2018-05-07T06:38:08.822Z,92.80
2018-05-07T06:40:37.127Z,93.10
2018-05-07T06:43:04.637Z,93.10
2018-05-07T06:45:32.173Z,92.00
2018-05-07T06:47:59.716Z,90.40
2018-05-07T06:50:27.258Z,87.90
2018-05-07T06:52:54.779Z,87.90
2018-05-07T06:55:22.297Z,84.80
2018-05-07T06:57:49.820Z,84.70
2018-05-07T07:00:18.118Z,82.10
2018-05-07T07:02:45.757Z,82.00
2018-05-07T07:05:13.191Z,81.20
2018-05-07T07:07:40.717Z,81.70
2018-05-07T07:10:08.256Z,77.30
2018-05-07T07:12:35.764Z,77.50
2018-05-07T07:15:03.289Z,75.70
2018-05-07T07:17:30.816Z,75.20
2018-05-07T07:19:59.116Z,74.60
2018-05-07T07:22:26.630Z,74.60
2018-05-07T07:24:54.161Z,73.40
2018-05-07T07:27:21.668Z,74.20
2018-05-07T07:29:49.973Z,76.20
2018-05-07T07:32:17.518Z,76.00
2018-05-07T07:34:45.025Z,72.70
2018-05-07T07:37:12.575Z,73.90
2018-05-07T07:39:40.079Z,70.70
2018-05-07T07:42:08.380Z,73.90
2018-05-07T07:44:35.896Z,73.80
2018-05-07T07:47:04.205Z,73.70
2018-05-07T07:49:31.723Z,73.60
2018-05-07T07:51:59.271Z,71.20
2018-05-07T07:54:26.783Z,72.20
2018-05-07T07:56:54.299Z,70.30
2018-05-07T07:59:21.907Z,73.10
2018-05-07T08:01:49.380Z,71.40
2018-05-07T08:04:16.993Z,66.70
2018-05-07T08:06:44.434Z,69.70
2018-05-07T08:09:11.970Z,72.50
2018-05-07T08:11:39.491Z,68.70
2018-05-07T08:14:07.018Z,73.90
2018-05-07T08:16:35.310Z,69.10
2018-05-07T08:19:02.853Z,69.00
2018-05-07T08:21:30.366Z,72.20
2018-05-07T08:23:57.877Z,71.50
2018-05-07T08:26:26.163Z,69.40
2018-05-07T08:28:54.442Z,67.20
2018-05-07T08:31:22.760Z,67.30
2018-05-07T08:33:50.277Z,68.00
2018-05-07T08:36:18.604Z,67.40
2018-05-07T08:38:46.131Z,67.40
2018-05-07T08:41:13.656Z,68.20
2018-05-07T08:43:41.933Z,66.90
2018-05-07T08:46:10.217Z,66.30
2018-05-07T08:48:38.521Z,62.20
2018-05-07T08:51:06.077Z,62.20
2018-05-07T08:53:33.594Z,65.30
2018-05-07T08:56:01.113Z,64.80
2018-05-07T08:58:28.639Z,66.40
2018-05-07T09:00:56.916Z,65.60
2018-05-07T09:03:27.021Z,63.90
2018-05-07T09:05:54.566Z,63.90
2018-05-07T09:08:22.150Z,63.50
2018-05-07T09:10:50.428Z,60.10
2018-05-07T09:13:19.446Z,66.30
2018-05-07T09:15:47.012Z,66.20
2018-05-07T09:18:14.524Z,63.80
2018-05-07T09:20:42.037Z,63.50
2018-05-07T09:23:09.551Z,64.80
2018-05-07T09:25:37.832Z,62.30
2018-05-07T09:28:06.101Z,61.40
2018-05-07T09:30:34.404Z,63.80
2018-05-07T09:33:01.924Z,63.80
2018-05-07T09:35:29.437Z,62.30
2018-05-07T09:37:56.966Z,61.90
2018-05-07T09:40:25.250Z,64.50
2018-05-07T09:42:52.849Z,64.50
2018-05-07T09:45:20.353Z,64.10
2018-05-07T09:47:48.663Z,60.20
2018-05-07T09:50:16.173Z,60.30
2018-05-07T09:52:43.713Z,61.80
2018-05-07T09:55:11.228Z,61.30
2018-05-07T09:57:38.978Z,61.40
2018-05-07T10:00:07.254Z,61.40
2018-05-07T10:02:35.552Z,62.60
2018-05-07T10:05:03.077Z,63.20
2018-05-07T10:07:31.374Z,60.50
2018-05-07T10:09:58.905Z,60.40
2018-05-07T10:12:27.182Z,60.60
2018-05-07T10:14:55.471Z,59.00
2018-05-07T10:17:23.743Z,60.30
2018-05-07T10:19:52.045Z,60.70
2018-05-07T10:22:19.548Z,60.70
2018-05-07T10:24:47.074Z,59.00
2018-05-07T10:27:14.601Z,54.00
2018-05-07T10:29:42.876Z,58.30
2018-05-07T10:32:11.176Z,57.00
2018-05-07T10:34:38.680Z,57.00
2018-05-07T10:37:06.222Z,57.20
2018-05-07T10:39:33.720Z,57.50
2018-05-07T10:42:02.001Z,54.60
2018-05-07T10:44:30.277Z,53.80
2018-05-07T10:46:58.572Z,57.30
2018-05-07T10:49:26.072Z,57.30
2018-05-07T10:51:53.617Z,55.10
2018-05-07T10:54:21.132Z,54.50
2018-05-07T10:56:49.399Z,53.60
2018-05-07T10:59:17.723Z,54.10
2018-05-07T11:01:45.235Z,54.20
2018-05-07T11:04:13.551Z,54.10
2018-05-07T11:06:41.053Z,54.10
2018-05-07T11:09:08.590Z,53.50
2018-05-07T11:11:36.100Z,53.50
2018-05-07T11:14:03.613Z,54.10
2018-05-07T11:16:31.128Z,53.00
2018-05-07T11:18:58.731Z,54.10
2018-05-07T11:21:26.205Z,52.30
2018-05-07T11:23:53.707Z,54.30
2018-05-07T11:26:21.238Z,52.50
2018-05-07T11:28:49.506Z,51.60
2018-05-07T11:31:17.020Z,51.50
2018-05-07T11:33:44.520Z,53.60
2018-05-07T11:36:12.043Z,53.50
2018-05-07T11:38:39.555Z,53.10
2018-05-07T11:41:07.825Z,53.40
2018-05-07T11:43:36.126Z,49.80
2018-05-07T11:46:03.642Z,49.70
2018-05-07T11:48:31.176Z,52.70
2018-05-07T11:50:58.690Z,50.20
2018-05-07T11:53:26.247Z,51.10
2018-05-07T11:55:54.519Z,51.50
2018-05-07T11:58:22.805Z,53.80
2018-05-07T12:00:50.312Z,53.70
2018-05-07T12:03:17.821Z,52.80
2018-05-07T12:05:46.100Z,52.10
2018-05-07T12:08:13.608Z,52.10
2018-05-07T12:10:41.145Z,51.30
2018-05-07T12:13:08.656Z,51.40
2018-05-07T12:15:36.944Z,50.20
2018-05-07T12:18:05.325Z,50.20
2018-05-07T12:20:33.619Z,47.80
2018-05-07T12:23:01.134Z,47.80
2018-05-07T12:25:28.658Z,49.30
2018-05-07T12:27:56.236Z,49.80
2018-05-07T12:30:23.747Z,50.10
2018-05-07T12:32:51.289Z,49.70
2018-05-07T12:35:19.569Z,49.30
2018-05-07T12:37:47.874Z,48.90
2018-05-07T12:40:15.386Z,48.80
2018-05-07T12:42:42.911Z,49.00
2018-05-07T12:45:10.425Z,47.80
2018-05-07T12:47:38.707Z,49.10
2018-05-07T12:50:06.973Z,49.30
2018-05-07T12:52:35.240Z,46.70
2018-05-07T12:55:03.538Z,48.60
2018-05-07T12:57:31.065Z,48.60
2018-05-07T12:59:59.374Z,48.20
2018-05-07T13:02:26.898Z,48.20
2018-05-07T13:04:54.428Z,47.90
2018-05-07T13:07:21.949Z,49.90
2018-05-07T13:09:50.242Z,49.70
2018-05-07T13:12:17.787Z,49.60
2018-05-07T13:14:45.314Z,48.70
2018-05-07T13:17:12.916Z,49.30
2018-05-07T13:19:40.415Z,48.90
2018-05-07T13:22:07.957Z,50.20
2018-05-07T13:24:35.474Z,50.60
2018-05-07T13:27:03.767Z,52.50
2018-05-07T13:29:31.305Z,51.80
2018-05-07T13:31:59.593Z,50.00
2018-05-07T13:34:27.127Z,50.00
2018-05-07T13:36:55.477Z,51.10
2018-05-07T13:39:22.956Z,51.20
2018-05-07T13:41:50.484Z,51.70
2018-05-07T13:44:17.997Z,51.00
2018-05-07T13:46:46.282Z,50.60
2018-05-07T13:49:13.807Z,50.50
2018-05-07T13:51:41.316Z,52.00
2018-05-07T13:54:08.834Z,51.90
2018-05-07T13:56:36.341Z,51.60
2018-05-07T13:59:03.873Z,51.10
2018-05-07T14:01:31.386Z,48.90
2018-05-07T14:03:58.918Z,52.30
2018-05-07T14:06:26.431Z,51.70
2018-05-07T14:08:54.700Z,50.80
2018-05-07T14:13:56.059Z,51.00
2018-05-07T14:16:23.585Z,50.80
2018-05-07T14:18:51.087Z,50.00
2018-05-07T14:21:19.376Z,51.20
2018-05-07T14:23:47.657Z,52.30
2018-05-07T14:26:16.012Z,50.50
2018-05-07T14:28:43.502Z,50.60
2018-05-07T14:31:11.033Z,49.20
2018-05-07T14:33:39.317Z,51.40
2018-05-07T14:36:07.594Z,50.60
2018-05-07T14:38:35.905Z,52.30
2018-05-07T14:41:03.423Z,52.20
2018-05-07T14:43:31.718Z,49.10
2018-05-07T14:45:59.239Z,49.00
2018-05-07T14:48:26.773Z,49.00
2018-05-07T14:50:54.279Z,50.00
2018-05-07T14:53:22.581Z,47.60
2018-05-07T14:55:50.182Z,47.60
2018-05-07T14:58:18.381Z,49.70
2018-05-07T15:00:45.901Z,49.00
2018-05-07T15:03:13.409Z,50.30
2018-05-07T15:05:41.720Z,48.40
2018-05-07T15:08:09.229Z,48.30
2018-05-07T15:10:37.547Z,50.40
2018-05-07T15:13:05.065Z,50.30
2018-05-07T15:15:34.649Z,51.10
2018-05-07T15:18:03.458Z,51.10
2018-05-07T15:20:32.771Z,50.10
2018-05-07T15:23:03.553Z,49.20
2018-05-07T15:25:33.293Z,49.10
2018-05-07T15:28:02.256Z,48.70
2018-05-07T15:30:31.453Z,49.00
2018-05-07T15:33:00.400Z,48.90
2018-05-07T15:35:30.561Z,49.90
2018-05-07T15:37:59.654Z,49.90
2018-05-07T15:40:28.553Z,49.00
2018-05-07T15:42:57.237Z,49.30
2018-05-07T15:45:24.739Z,49.40
2018-05-07T15:47:54.220Z,49.30
2018-05-07T15:50:23.878Z,49.50
2018-05-07T15:52:53.709Z,49.40
2018-05-07T15:55:21.257Z,49.30
2018-05-07T15:57:49.795Z,50.30
2018-05-07T16:00:17.424Z,50.20
2018-05-07T16:02:45.122Z,48.10
2018-05-07T16:05:14.644Z,49.00
2018-05-07T16:07:43.757Z,48.80
2018-05-07T16:10:12.224Z,49.30
2018-05-07T16:12:39.910Z,49.30
2018-05-07T16:15:07.460Z,49.80
2018-05-07T16:17:36.855Z,49.80
2018-05-07T16:20:04.799Z,49.80
2018-05-07T16:22:32.386Z,49.10
2018-05-07T16:25:00.667Z,50.30
2018-05-07T16:27:28.986Z,50.30
2018-05-07T16:29:56.498Z,50.20
2018-05-07T16:32:24.779Z,50.20
2018-05-07T16:34:53.069Z,51.40
2018-05-07T16:37:20.610Z,51.40
2018-05-07T16:39:49.139Z,50.50
2018-05-07T16:42:16.649Z,50.60
2018-05-07T16:44:44.963Z,50.30
2018-05-07T16:47:12.779Z,50.30
2018-05-07T16:49:41.117Z,50.90
2018-05-07T16:52:08.643Z,50.80
2018-05-07T16:54:36.178Z,50.50
2018-05-07T16:57:05.177Z,50.50
2018-05-07T16:59:33.486Z,50.80
2018-05-07T17:02:01.411Z,50.80
2018-05-07T17:04:28.979Z,51.10
2018-05-07T17:06:57.258Z,51.10
2018-05-07T17:09:25.549Z,51.60
2018-05-07T17:11:54.013Z,52.50
2018-05-07T17:14:21.546Z,52.50
2018-05-07T17:16:49.479Z,52.80
2018-05-07T17:19:17.025Z,52.40
2018-05-07T17:21:44.598Z,52.30
2018-05-07T17:24:12.472Z,52.50
2018-05-07T17:26:40.006Z,53.00
2018-05-07T17:29:07.518Z,52.50
2018-05-07T17:31:35.024Z,53.10
2018-05-07T17:34:02.641Z,52.90
2018-05-07T17:36:30.840Z,52.80
2018-05-07T17:38:59.142Z,53.10
2018-05-07T17:41:26.732Z,53.10
2018-05-07T17:43:54.960Z,53.30
2018-05-07T17:46:35.156Z,53.60
2018-05-07T17:49:02.671Z,53.60
2018-05-07T17:51:30.953Z,53.00
2018-05-07T17:53:59.253Z,54.10
2018-05-07T17:56:26.766Z,54.10
2018-05-07T17:58:54.298Z,54.10
2018-05-07T18:01:21.822Z,54.50
2018-05-07T18:03:49.343Z,54.20
2018-05-07T18:06:17.628Z,55.00
2018-05-07T18:08:45.908Z,55.00
2018-05-07T18:11:14.211Z,55.40
2018-05-07T18:13:41.713Z,55.40
2018-05-07T18:16:09.257Z,55.40
2018-05-07T18:18:36.777Z,55.80
2018-05-07T18:21:05.063Z,56.00
2018-05-07T18:23:32.564Z,55.60
2018-05-07T18:26:01.032Z,56.30
2018-05-07T18:28:28.428Z,55.60
2018-05-07T18:30:56.698Z,56.30
2018-05-07T18:33:24.253Z,56.30
2018-05-07T18:35:51.781Z,56.30
2018-05-07T18:38:19.326Z,56.70
2018-05-07T18:40:46.843Z,56.80
2018-05-07T18:43:15.161Z,56.90
2018-05-07T18:45:42.683Z,56.90
2018-05-07T18:48:10.967Z,57.30
2018-05-07T18:50:39.274Z,57.30
2018-05-07T18:53:06.789Z,57.30
2018-05-07T18:55:35.143Z,59.30
2018-05-07T18:58:02.677Z,59.20
2018-05-07T19:00:30.240Z,60.40
2018-05-07T19:02:57.769Z,59.30
2018-05-07T19:05:25.316Z,60.60
2018-05-07T19:07:53.403Z,60.50
2018-05-07T19:10:20.936Z,61.10
2018-05-07T19:12:49.233Z,60.40
2018-05-07T19:15:16.749Z,60.40
2018-05-07T19:17:44.281Z,61.40
2018-05-07T19:20:11.793Z,61.10
2018-05-07T19:22:40.099Z,61.80
2018-05-07T19:25:07.619Z,61.70
2018-05-07T19:27:35.162Z,61.80
2018-05-07T19:30:02.677Z,62.40
2018-05-07T19:32:30.226Z,63.00
2018-05-07T19:34:57.757Z,63.90
2018-05-07T19:37:25.280Z,64.30
2018-05-07T19:39:52.819Z,65.00
2018-05-07T19:42:20.350Z,65.00
2018-05-07T19:44:47.874Z,65.40
2018-05-07T19:47:15.408Z,65.20
2018-05-07T19:49:42.952Z,65.00
2018-05-07T19:52:10.472Z,66.00
2018-05-07T19:54:38.786Z,66.50
2018-05-07T19:57:06.292Z,66.30
2018-05-07T19:59:33.797Z,66.40
2018-05-07T20:02:01.329Z,66.80
2018-05-07T20:04:29.661Z,67.40
2018-05-07T20:06:57.192Z,67.40
2018-05-07T20:09:24.700Z,68.40
2018-05-07T20:11:52.246Z,68.10
2018-05-07T20:14:19.763Z,68.20
2018-05-07T20:16:47.297Z,69.00
2018-05-07T20:19:15.582Z,69.90
2018-05-07T20:21:43.852Z,70.00
2018-05-07T20:24:11.406Z,69.90
2018-05-07T20:26:39.682Z,70.10
2018-05-07T20:29:08.049Z,69.70
2018-05-07T20:31:35.509Z,69.70
2018-05-07T20:34:03.037Z,70.30
2018-05-07T20:36:30.554Z,70.60
2018-05-07T20:38:58.101Z,70.40
2018-05-07T20:41:26.386Z,71.00
2018-05-07T20:43:53.917Z,71.00
2018-05-07T20:46:22.235Z,70.80
2018-05-07T20:48:49.751Z,70.80
2018-05-07T20:51:17.284Z,71.10
2018-05-07T20:53:44.802Z,72.70
2018-05-07T20:56:12.343Z,73.80
2018-05-07T20:58:40.638Z,74.40
2018-05-07T21:01:08.178Z,74.30
2018-05-07T21:03:36.457Z,74.10
2018-05-07T21:06:04.757Z,74.30
2018-05-07T21:08:32.287Z,74.20
2018-05-07T21:11:00.579Z,75.80
2018-05-07T21:13:28.102Z,75.80
2018-05-07T21:15:55.626Z,76.00
2018-05-07T21:18:23.163Z,76.40
2018-05-07T21:20:50.667Z,77.00
2018-05-07T21:23:18.199Z,76.60
2018-05-07T21:25:45.709Z,77.00
2018-05-07T21:28:14.006Z,76.60
2018-05-07T21:30:41.551Z,76.40
2018-05-07T21:33:09.856Z,76.70
2018-05-07T21:35:37.425Z,76.70
2018-05-07T21:38:05.691Z,76.30
2018-05-07T21:40:33.218Z,76.30
2018-05-07T21:43:01.522Z,76.40
2018-05-07T21:45:29.041Z,76.40
2018-05-07T21:47:56.560Z,76.60
2018-05-07T21:50:24.084Z,76.30
2018-05-07T21:52:52.389Z,75.70
2018-05-07T21:55:19.909Z,75.60
2018-05-07T21:57:48.184Z,77.70
2018-05-07T22:00:16.490Z,78.30
2018-05-07T22:02:44.022Z,78.30
2018-05-07T22:05:11.566Z,77.80
2018-05-07T22:07:39.115Z,79.40
2018-05-07T22:10:06.630Z,78.00
2018-05-07T22:12:34.156Z,78.90
2018-05-07T22:15:02.548Z,80.30
2018-05-07T22:17:30.007Z,80.30
2018-05-07T22:19:58.280Z,81.40
2018-05-07T22:22:26.582Z,83.50
2018-05-07T22:24:54.099Z,83.50
2018-05-07T22:27:22.394Z,83.30
2018-05-07T22:29:49.960Z,83.30
2018-05-07T22:32:17.476Z,85.20
2018-05-07T22:34:45.018Z,84.30
2018-05-07T22:37:12.541Z,83.60
2018-05-07T22:39:40.085Z,82.40
2018-05-07T22:42:08.359Z,83.20
2018-05-07T22:44:36.648Z,83.00
2018-05-07T22:47:04.183Z,83.00
2018-05-07T22:49:32.484Z,82.90
2018-05-07T22:52:00.034Z,82.90
2018-05-07T22:54:28.303Z,85.40
2018-05-07T22:56:56.591Z,84.10
2018-05-07T22:59:24.115Z,84.10
2018-05-07T23:01:51.656Z,83.30
2018-05-07T23:04:19.180Z,85.20
2018-05-07T23:06:46.718Z,85.60
2018-05-07T23:09:14.251Z,86.10
2018-05-07T23:11:41.788Z,86.90
2018-05-07T23:14:09.296Z,89.30
2018-05-07T23:16:37.589Z,87.10
2018-05-07T23:19:05.147Z,87.00
2018-05-07T23:21:32.670Z,86.70
2018-05-07T23:24:00.220Z,86.90
2018-05-07T23:26:27.742Z,87.00
2018-05-07T23:28:55.294Z,87.10
2018-05-07T23:31:22.815Z,87.30
2018-05-07T23:33:50.369Z,87.30
2018-05-07T23:36:18.659Z,88.70
2018-05-07T23:38:46.946Z,89.80
2018-05-07T23:41:14.498Z,89.80
2018-05-07T23:43:42.024Z,89.80
2018-05-07T23:46:09.569Z,90.50
2018-05-07T23:48:37.082Z,90.40
2018-05-07T23:51:05.389Z,90.60
2018-05-07T23:53:32.904Z,90.60
2018-05-07T23:56:01.215Z,91.00
2018-05-07T23:58:28.737Z,91.00
